createdAt,value
2023-04-12T00:01:35.137Z,3.00
2023-04-12T00:04:05.216Z,2.28
2023-04-12T00:06:35.196Z,2.85
2023-04-12T00:09:05.048Z,2.50
2023-04-12T00:11:36.455Z,2.20
2023-04-12T00:14:05.820Z,2.70
2023-04-12T00:16:36.427Z,2.17
2023-04-12T00:19:06.730Z,2.38
2023-04-12T00:21:36.138Z,2.60
2023-04-12T00:24:05.779Z,2.15
2023-04-12T00:26:36.690Z,3.05
2023-04-12T00:29:05.912Z,2.75
2023-04-12T00:31:35.369Z,2.40
2023-04-12T00:34:04.765Z,3.20
2023-04-12T00:36:34.227Z,2.67
2023-04-12T00:39:03.833Z,2.58
2023-04-12T00:41:33.134Z,2.67
2023-04-12T00:44:04.724Z,2.60
2023-04-12T00:50:08.677Z,2.15
2023-04-12T00:52:38.280Z,2.72
2023-04-12T00:55:10.777Z,2.50
2023-04-12T00:57:41.859Z,3.28
2023-04-12T01:00:14.016Z,3.00
2023-04-12T01:02:47.540Z,2.88
2023-04-12T01:05:23.093Z,3.13
2023-04-12T01:08:07.238Z,3.20
2023-04-12T01:10:47.989Z,2.67
2023-04-12T01:13:33.872Z,2.75
2023-04-12T01:16:11.036Z,2.60
2023-04-12T01:18:46.057Z,3.20
2023-04-12T01:21:30.190Z,3.13
2023-04-12T01:24:21.127Z,3.33
2023-04-12T01:26:53.033Z,2.97
2023-04-12T01:29:26.492Z,2.80
2023-04-12T01:32:00.363Z,2.33
2023-04-12T01:34:34.136Z,3.33
2023-04-12T01:37:06.472Z,3.05
2023-04-12T01:39:36.518Z,3.28
2023-04-12T01:42:06.270Z,2.65
2023-04-12T01:44:37.190Z,3.45
2023-04-12T01:47:06.936Z,2.92
2023-04-12T01:49:53.513Z,2.85
2023-04-12T01:52:22.938Z,2.80
2023-04-12T01:54:57.129Z,2.67
2023-04-12T01:57:27.898Z,2.53
2023-04-12T02:00:00.972Z,3.17
2023-04-12T02:02:31.459Z,2.85
2023-04-12T02:05:03.416Z,3.03
2023-04-12T02:07:33.191Z,2.42
2023-04-12T02:10:03.195Z,2.25
2023-04-12T02:12:32.730Z,2.88
2023-04-12T02:15:05.050Z,3.15
2023-04-12T02:17:34.450Z,2.78
2023-04-12T02:20:04.440Z,2.85
2023-04-12T02:22:33.931Z,2.67
2023-04-12T02:25:03.449Z,2.92
2023-04-12T02:27:33.109Z,3.35
2023-04-12T02:30:04.736Z,2.78
2023-04-12T02:32:45.398Z,2.83
2023-04-12T02:35:17.835Z,2.47
2023-04-12T02:37:48.698Z,2.75
2023-04-12T02:40:18.203Z,2.70
2023-04-12T02:42:47.656Z,2.58
2023-04-12T02:45:18.526Z,2.45
2023-04-12T02:47:47.885Z,2.70
2023-04-12T02:50:17.450Z,2.60
2023-04-12T02:52:47.096Z,2.88
2023-04-12T02:55:17.479Z,2.90
2023-04-12T02:57:47.871Z,2.15
2023-04-12T03:00:19.992Z,2.85
2023-04-12T03:02:50.173Z,2.58
2023-04-12T03:05:20.258Z,2.38
2023-04-12T03:07:50.434Z,2.20
2023-04-12T03:10:19.752Z,2.67
2023-04-12T03:12:49.068Z,3.03
2023-04-12T03:15:20.410Z,3.03
2023-04-12T03:17:49.799Z,2.80
2023-04-12T03:20:20.585Z,2.55
2023-04-12T03:22:49.915Z,3.05
2023-04-12T03:25:19.850Z,2.55
2023-04-12T03:27:49.382Z,2.60
2023-04-12T03:30:20.077Z,2.88
2023-04-12T03:32:49.387Z,2.33
2023-04-12T03:35:19.011Z,2.22
2023-04-12T03:37:48.633Z,1.88
2023-04-12T03:40:17.880Z,2.08
2023-04-12T03:42:47.207Z,2.10
2023-04-12T03:45:16.756Z,2.90
2023-04-12T03:51:12.502Z,3.80
2023-04-12T03:53:42.175Z,3.60
2023-04-12T03:56:12.872Z,2.60
2023-04-12T03:58:42.078Z,2.67
2023-04-12T04:01:13.979Z,1.65
2023-04-12T04:03:45.325Z,2.93
2023-04-12T04:06:17.665Z,2.03
2023-04-12T04:08:47.379Z,1.92
2023-04-12T04:11:17.066Z,1.98
2023-04-12T04:13:47.311Z,2.40
2023-04-12T04:16:16.718Z,2.20
2023-04-12T04:18:46.397Z,2.42
2023-04-12T04:21:17.386Z,2.00
2023-04-12T04:23:48.166Z,2.50
2023-04-12T04:26:17.991Z,2.20
2023-04-12T04:28:50.441Z,2.25
2023-04-12T04:31:19.934Z,2.50
2023-04-12T04:33:49.702Z,1.90
2023-04-12T04:36:20.938Z,2.08
2023-04-12T04:38:50.174Z,2.60
2023-04-12T04:41:22.847Z,2.40
2023-04-12T04:43:52.375Z,2.45
2023-04-12T04:46:22.490Z,2.92
2023-04-12T04:48:55.356Z,3.15
2023-04-12T04:51:26.451Z,3.17
2023-04-12T04:53:56.097Z,3.05
2023-04-12T04:56:25.588Z,7.22
2023-04-12T04:58:57.011Z,5.05
2023-04-12T05:01:28.840Z,3.85
2023-04-12T05:03:58.466Z,3.33
2023-04-12T05:06:29.630Z,3.20
2023-04-12T05:08:59.203Z,2.92
2023-04-12T05:11:28.970Z,2.60
2023-04-12T05:13:58.232Z,3.17
2023-04-12T05:16:30.591Z,4.57
2023-04-12T05:19:00.147Z,4.03
2023-04-12T05:21:31.382Z,3.17
2023-04-12T05:24:00.897Z,3.05
2023-04-12T05:26:30.273Z,2.38
2023-04-12T05:29:01.432Z,2.50
2023-04-12T05:31:30.793Z,2.75
2023-04-12T05:34:00.348Z,2.75
2023-04-12T05:36:32.091Z,2.10
2023-04-12T05:39:01.706Z,2.90
2023-04-12T05:41:31.513Z,2.78
2023-04-12T05:44:00.888Z,2.33
2023-04-12T05:46:30.284Z,2.58
2023-04-12T05:48:59.805Z,3.63
2023-04-12T05:51:40.463Z,3.05
2023-04-12T05:54:10.899Z,3.50
2023-04-12T05:56:40.439Z,4.20
2023-04-12T05:59:11.712Z,3.58
2023-04-12T06:01:44.912Z,3.60
2023-04-12T06:04:14.921Z,3.60
2023-04-12T06:06:45.901Z,2.92
2023-04-12T06:09:15.816Z,3.17
2023-04-12T06:11:45.319Z,3.45
2023-04-12T06:14:14.640Z,2.75
2023-04-12T06:16:44.096Z,3.10
2023-04-12T06:19:13.540Z,3.65
2023-04-12T06:21:44.305Z,3.42
2023-04-12T06:24:13.706Z,3.72
2023-04-12T06:26:47.091Z,5.10
2023-04-12T06:29:17.375Z,4.47
2023-04-12T06:31:46.651Z,4.13
2023-04-12T06:34:16.154Z,3.72
2023-04-12T06:36:47.938Z,4.28
2023-04-12T06:39:17.428Z,5.30
2023-04-12T06:41:47.693Z,4.03
2023-04-12T06:44:17.067Z,4.20
2023-04-12T06:46:46.811Z,3.65
2023-04-12T06:51:06.095Z,3.65
2023-04-12T06:53:36.088Z,4.03
2023-04-12T06:56:07.607Z,2.75
2023-04-12T06:58:36.934Z,2.60
2023-04-12T07:01:10.686Z,2.05
2023-04-12T07:03:40.222Z,2.17
2023-04-12T07:06:24.342Z,2.20
2023-04-12T07:08:55.641Z,1.42
2023-04-12T07:11:25.458Z,1.95
2023-04-12T07:13:54.892Z,1.75
2023-04-12T07:16:24.314Z,1.08
2023-04-12T07:18:53.554Z,1.20
2023-04-12T07:21:24.350Z,1.13
2023-04-12T07:23:54.186Z,0.63
2023-04-12T07:26:23.668Z,0.57
2023-04-12T07:28:52.967Z,0.77
2023-04-12T07:31:23.773Z,0.73
2023-04-12T07:33:53.118Z,0.30
2023-04-12T07:36:24.118Z,0.80
2023-04-12T07:38:55.948Z,0.60
2023-04-12T07:41:25.844Z,0.40
2023-04-12T07:43:55.154Z,0.35
2023-04-12T07:46:24.519Z,0.35
2023-04-12T07:48:54.237Z,0.20
2023-04-12T07:51:25.467Z,0.30
2023-04-12T07:53:55.129Z,0.20
2023-04-12T07:56:24.771Z,0.60
2023-04-12T07:58:54.059Z,0.55
2023-04-12T08:01:23.466Z,0.40
2023-04-12T08:03:53.164Z,0.20
2023-04-12T08:06:24.130Z,0.30
2023-04-12T08:08:53.421Z,0.20
2023-04-12T08:11:22.840Z,0.30
2023-04-12T08:13:52.230Z,0.32
2023-04-12T08:16:21.746Z,0.50
2023-04-12T08:18:51.252Z,0.20
2023-04-12T08:21:20.735Z,0.30
2023-04-12T08:23:52.247Z,0.30
2023-04-12T08:26:21.789Z,0.28
2023-04-12T08:28:51.092Z,0.30
2023-04-12T08:31:20.914Z,0.47
2023-04-12T08:33:50.328Z,0.30
2023-04-12T08:36:20.026Z,0.20
2023-04-12T08:38:52.763Z,0.20
2023-04-12T08:43:53.756Z,0.20
2023-04-12T08:46:23.386Z,0.10
2023-04-12T08:48:55.519Z,0.10
2023-04-12T08:51:24.910Z,0.10
2023-04-12T08:53:55.717Z,0.10
2023-04-12T08:56:25.548Z,0.08
2023-04-12T08:58:55.485Z,0.20
2023-04-12T09:01:24.994Z,0.10
2023-04-12T09:03:54.538Z,0.10
2023-04-12T09:06:24.037Z,0.10
2023-04-12T09:08:57.347Z,0.08
2023-04-12T09:11:29.115Z,0.10
2023-04-12T09:13:59.621Z,0.05
2023-04-12T09:16:40.397Z,0.03
2023-04-12T09:19:10.749Z,0.10
2023-04-12T09:21:54.579Z,0.10
2023-04-12T09:24:25.631Z,0.10
2023-04-12T09:27:05.972Z,0.10
2023-04-12T09:29:36.368Z,0.10
2023-04-12T09:32:08.825Z,0.13
2023-04-12T09:34:39.085Z,0.30
2023-04-12T09:37:19.116Z,0.10
2023-04-12T09:39:49.927Z,0.10
2023-04-12T09:42:33.158Z,0.10
2023-04-12T09:45:22.408Z,0.20
2023-04-12T09:51:06.463Z,0.10
2023-04-12T09:53:37.826Z,0.20
2023-04-12T09:56:10.186Z,0.10
2023-04-12T09:58:41.468Z,0.10
2023-04-12T10:01:12.565Z,0.20
2023-04-12T10:03:42.620Z,0.28
2023-04-12T10:06:15.770Z,0.10
2023-04-12T10:08:46.341Z,0.20
2023-04-12T10:11:16.614Z,0.10
2023-04-12T10:13:47.295Z,0.10
2023-04-12T10:16:18.197Z,0.10
2023-04-12T10:18:48.816Z,0.10
2023-04-12T10:21:19.973Z,0.10
2023-04-12T10:23:49.785Z,0.10
2023-04-12T10:26:19.970Z,0.28
2023-04-12T10:29:24.811Z,0.20
2023-04-12T10:31:54.667Z,0.10
2023-04-12T10:34:30.690Z,0.10
2023-04-12T10:37:03.035Z,0.10
2023-04-12T10:39:43.768Z,0.10
2023-04-12T10:42:25.290Z,0.10
2023-04-12T10:44:58.733Z,0.10
2023-04-12T10:48:02.005Z,0.05
2023-04-12T10:50:34.130Z,0.05
2023-04-12T10:53:29.564Z,0.10
2023-04-12T10:55:58.981Z,0.10
2023-04-12T10:59:02.939Z,0.10
2023-04-12T11:01:35.951Z,0.10
2023-04-12T11:04:17.119Z,0.10
2023-04-12T11:06:59.183Z,0.03
2023-04-12T11:09:40.523Z,0.10
2023-04-12T11:12:17.474Z,0.10
2023-04-12T11:14:49.605Z,0.10
2023-04-12T11:17:27.684Z,0.00
2023-04-12T11:20:00.708Z,0.10
2023-04-12T11:22:32.866Z,0.00
2023-04-12T11:25:05.238Z,0.20
2023-04-12T11:27:34.778Z,0.10
2023-04-12T11:30:04.368Z,0.10
2023-04-12T11:32:35.523Z,0.10
2023-04-12T11:35:05.114Z,0.10
2023-04-12T11:37:35.901Z,0.15
2023-04-12T11:40:09.637Z,0.10
2023-04-12T11:42:42.208Z,0.20
2023-04-12T11:45:18.160Z,0.10
2023-04-12T11:47:48.927Z,0.13
2023-04-12T11:50:32.625Z,0.20
2023-04-12T11:53:19.648Z,0.10
2023-04-12T11:55:52.553Z,0.10
2023-04-12T11:58:27.365Z,0.10
2023-04-12T12:00:58.971Z,0.10
2023-04-12T12:03:31.944Z,0.10
2023-04-12T12:06:01.816Z,0.10
2023-04-12T12:08:31.528Z,0.10
2023-04-12T12:11:07.943Z,0.17
2023-04-12T12:13:54.045Z,0.20
2023-04-12T12:16:28.898Z,0.20
2023-04-12T12:18:59.480Z,0.20
2023-04-12T12:21:28.846Z,0.13
2023-04-12T12:23:59.268Z,0.10
2023-04-12T12:26:30.866Z,0.10
2023-04-12T12:29:01.494Z,0.20
2023-04-12T12:31:31.480Z,0.10
2023-04-12T12:34:04.259Z,0.10
2023-04-12T12:36:39.074Z,0.20
2023-04-12T12:39:11.751Z,0.30
2023-04-12T12:41:42.929Z,0.10
2023-04-12T12:44:13.837Z,0.13
2023-04-12T12:51:06.287Z,0.10
2023-04-12T12:53:35.980Z,0.20
2023-04-12T12:56:05.767Z,0.20
2023-04-12T12:58:35.718Z,0.10
2023-04-12T13:01:05.735Z,0.10
2023-04-12T13:03:35.977Z,0.30
2023-04-12T13:06:08.037Z,0.20
2023-04-12T13:08:37.380Z,0.30
2023-04-12T13:11:08.994Z,0.10
2023-04-12T13:13:39.629Z,0.10
2023-04-12T13:16:10.345Z,0.10
2023-04-12T13:18:40.173Z,0.20
2023-04-12T13:21:11.155Z,0.20
2023-04-12T13:23:40.509Z,0.20
2023-04-12T13:26:09.911Z,0.10
2023-04-12T13:28:39.321Z,0.20
2023-04-12T13:31:09.220Z,0.20
2023-04-12T13:33:38.561Z,0.10
2023-04-12T13:36:10.155Z,0.25
2023-04-12T13:38:39.569Z,0.10
2023-04-12T13:41:08.876Z,0.20
2023-04-12T13:43:38.169Z,0.10
2023-04-12T13:46:08.037Z,0.15
2023-04-12T13:48:37.578Z,0.20
2023-04-12T13:51:07.616Z,0.10
2023-04-12T13:53:38.378Z,0.10
2023-04-12T13:56:08.805Z,0.40
2023-04-12T13:58:40.074Z,0.10
2023-04-12T14:01:10.145Z,0.20
2023-04-12T14:03:39.913Z,0.30
2023-04-12T14:06:10.048Z,0.10
2023-04-12T14:08:40.869Z,0.20
2023-04-12T14:11:10.259Z,0.13
2023-04-12T14:13:39.889Z,0.20
2023-04-12T14:16:10.135Z,0.40
2023-04-12T14:18:39.447Z,0.20
2023-04-12T14:21:10.633Z,0.20
2023-04-12T14:23:41.868Z,0.30
2023-04-12T14:26:16.106Z,0.30
2023-04-12T14:28:45.329Z,0.10
2023-04-12T14:31:15.308Z,0.10
2023-04-12T14:33:44.987Z,0.30
2023-04-12T14:36:14.569Z,0.15
2023-04-12T14:38:45.699Z,0.10
2023-04-12T14:41:15.319Z,0.10
2023-04-12T14:43:45.099Z,0.10
2023-04-12T14:46:15.736Z,0.20
2023-04-12T14:48:45.835Z,0.25
2023-04-12T14:51:15.208Z,0.20
2023-04-12T14:53:46.832Z,0.10
2023-04-12T14:56:24.664Z,0.35
2023-04-12T14:58:56.716Z,0.30
2023-04-12T15:01:27.786Z,0.10
2023-04-12T15:03:57.541Z,0.10
2023-04-12T15:06:27.475Z,0.32
2023-04-12T15:08:58.176Z,0.20
2023-04-12T15:11:27.716Z,0.10
2023-04-12T15:13:57.585Z,0.20
2023-04-12T15:16:29.103Z,0.70
2023-04-12T15:19:02.061Z,0.40
2023-04-12T15:21:34.110Z,0.68
2023-04-12T15:24:04.933Z,0.30
2023-04-12T15:26:35.330Z,0.17
2023-04-12T15:29:04.866Z,0.10
2023-04-12T15:31:34.342Z,0.10
2023-04-12T15:34:03.874Z,0.20
2023-04-12T15:36:35.136Z,0.10
2023-04-12T15:39:06.961Z,0.10
2023-04-12T15:41:38.607Z,0.10
2023-04-12T15:44:09.515Z,0.20
2023-04-12T15:46:38.839Z,0.10
2023-04-12T15:51:06.588Z,0.10
2023-04-12T15:53:36.237Z,0.30
2023-04-12T15:56:05.818Z,0.30
2023-04-12T15:58:35.255Z,0.20
2023-04-12T16:01:05.274Z,0.30
2023-04-12T16:03:36.001Z,0.50
2023-04-12T16:06:08.098Z,0.40
2023-04-12T16:08:37.313Z,0.50
2023-04-12T16:11:08.934Z,0.30
2023-04-12T16:13:38.734Z,0.60
2023-04-12T16:16:09.711Z,1.20
2023-04-12T16:18:39.373Z,1.30
2023-04-12T16:21:11.719Z,1.15
2023-04-12T16:23:41.038Z,0.20
2023-04-12T16:26:10.848Z,0.20
2023-04-12T16:28:43.111Z,0.20
2023-04-12T16:31:16.446Z,0.30
2023-04-12T16:33:45.891Z,0.50
2023-04-12T16:36:17.051Z,0.50
2023-04-12T16:38:46.923Z,0.20
2023-04-12T16:41:17.463Z,0.70
2023-04-12T16:43:46.974Z,0.43
2023-04-12T16:46:16.688Z,0.50
2023-04-12T16:48:45.942Z,0.20
2023-04-12T16:51:17.213Z,0.30
2023-04-12T16:53:46.583Z,0.10
2023-04-12T16:56:17.238Z,0.17
2023-04-12T16:58:49.019Z,0.30
2023-04-12T17:01:18.475Z,0.20
2023-04-12T17:03:49.470Z,0.57
2023-04-12T17:06:20.497Z,0.30
2023-04-12T17:08:49.862Z,0.30
2023-04-12T17:11:19.274Z,0.30
2023-04-12T17:13:50.610Z,0.30
2023-04-12T17:16:20.025Z,0.50
2023-04-12T17:18:49.458Z,0.20
2023-04-12T17:21:20.457Z,0.30
2023-04-12T17:23:51.223Z,0.20
2023-04-12T17:26:25.222Z,0.15
2023-04-12T17:28:54.883Z,0.80
2023-04-12T17:31:27.238Z,1.20
2023-04-12T17:33:56.933Z,1.25
2023-04-12T17:36:31.588Z,0.32
2023-04-12T17:39:04.742Z,0.30
2023-04-12T17:41:34.071Z,0.30
2023-04-12T17:44:03.648Z,0.40
2023-04-12T17:46:33.365Z,0.40
2023-04-12T17:49:05.881Z,0.25
2023-04-12T17:54:06.008Z,0.65
2023-04-12T17:56:35.735Z,1.60
2023-04-12T17:59:05.741Z,2.83
2023-04-12T18:01:36.874Z,2.83
2023-04-12T18:04:07.385Z,2.67
2023-04-12T18:06:39.601Z,3.17
2023-04-12T18:09:11.089Z,4.70
2023-04-12T18:11:42.576Z,3.47
2023-04-12T18:14:13.186Z,1.02
2023-04-12T18:16:42.739Z,1.85
2023-04-12T18:19:13.579Z,4.07
2023-04-12T18:21:48.482Z,5.07
2023-04-12T18:24:17.982Z,5.50
2023-04-12T18:26:48.239Z,5.05
2023-04-12T18:29:18.326Z,4.38
2023-04-12T18:31:47.684Z,2.20
2023-04-12T18:34:19.204Z,2.10
2023-04-12T18:36:49.997Z,4.95
2023-04-12T18:39:20.565Z,6.15
2023-04-12T18:41:49.982Z,15.07
2023-04-12T18:44:20.169Z,14.13
2023-04-12T18:46:49.509Z,17.75
2023-04-12T18:51:06.135Z,9.40
2023-04-12T18:53:35.549Z,8.60
2023-04-12T18:56:10.810Z,8.35
2023-04-12T18:58:53.976Z,5.22
2023-04-12T19:01:25.621Z,7.00
2023-04-12T19:03:55.244Z,6.43
2023-04-12T19:06:27.391Z,5.45
2023-04-12T19:08:56.706Z,2.20
2023-04-12T19:11:26.829Z,2.22
2023-04-12T19:13:57.439Z,5.40
2023-04-12T19:16:28.640Z,6.43
2023-04-12T19:19:00.312Z,5.10
2023-04-12T19:21:33.129Z,7.07
2023-04-12T19:24:02.485Z,3.47
2023-04-12T19:26:32.213Z,3.03
2023-04-12T19:29:02.048Z,5.45
2023-04-12T19:31:31.453Z,5.20
2023-04-12T19:34:01.848Z,6.25
2023-04-12T19:36:32.675Z,7.72
2023-04-12T19:39:02.987Z,5.93
2023-04-12T19:41:32.476Z,2.80
2023-04-12T19:44:01.802Z,4.55
2023-04-12T19:46:32.858Z,4.18
2023-04-12T19:49:02.264Z,5.10
2023-04-12T19:51:33.112Z,4.50
2023-04-12T19:54:02.984Z,3.15
2023-04-12T19:56:33.006Z,4.72
2023-04-12T19:59:02.814Z,5.75
2023-04-12T20:01:48.006Z,5.70
2023-04-12T20:04:19.355Z,4.13
2023-04-12T20:06:52.615Z,5.47
2023-04-12T20:09:22.845Z,3.72
2023-04-12T20:11:52.175Z,4.82
2023-04-12T20:14:22.173Z,5.20
2023-04-12T20:16:56.044Z,1.75
2023-04-12T20:19:26.538Z,4.80
2023-04-12T20:22:02.076Z,4.75
2023-04-12T20:24:34.727Z,4.88
2023-04-12T20:27:04.082Z,2.45
2023-04-12T20:29:36.331Z,3.83
2023-04-12T20:32:05.812Z,3.55
2023-04-12T20:34:35.086Z,2.05
2023-04-12T20:37:08.689Z,2.53
2023-04-12T20:39:38.215Z,1.80
2023-04-12T20:42:07.854Z,2.15
2023-04-12T20:44:37.590Z,2.53
2023-04-12T20:47:07.582Z,1.98
2023-04-12T20:49:36.844Z,2.83
2023-04-12T20:52:09.823Z,1.65
2023-04-12T20:54:39.132Z,1.23
2023-04-12T20:57:08.495Z,2.15
2023-04-12T20:59:38.657Z,1.05
2023-04-12T21:02:09.511Z,0.60
2023-04-12T21:04:41.479Z,1.13
2023-04-12T21:07:12.830Z,0.53
2023-04-12T21:09:42.054Z,0.47
2023-04-12T21:12:11.444Z,1.40
2023-04-12T21:14:40.771Z,1.20
2023-04-12T21:17:10.134Z,1.20
2023-04-12T21:19:41.804Z,1.40
2023-04-12T21:22:12.690Z,1.00
2023-04-12T21:24:41.871Z,1.00
2023-04-12T21:27:11.660Z,0.73
2023-04-12T21:29:41.965Z,0.82
2023-04-12T21:32:11.556Z,0.80
2023-04-12T21:34:40.795Z,1.20
2023-04-12T21:37:12.214Z,3.15
2023-04-12T21:39:43.729Z,3.45
2023-04-12T21:42:13.171Z,2.83
2023-04-12T21:44:44.213Z,3.40
2023-04-12T21:47:13.802Z,2.47
2023-04-12T21:51:06.095Z,5.22
2023-04-12T21:53:35.480Z,3.10
2023-04-12T21:56:04.969Z,2.63
2023-04-12T21:58:35.195Z,2.55
2023-04-12T22:01:04.914Z,1.23
2023-04-12T22:03:34.523Z,3.45
2023-04-12T22:06:05.832Z,1.92
2023-04-12T22:08:35.219Z,4.88
2023-04-12T22:11:05.417Z,3.83
2023-04-12T22:13:41.549Z,3.13
2023-04-12T22:16:14.196Z,3.67
2023-04-12T22:18:45.961Z,1.85
2023-04-12T22:21:16.909Z,2.20
2023-04-12T22:23:47.002Z,2.90
2023-04-12T22:26:16.734Z,3.22
2023-04-12T22:28:48.513Z,3.17
2023-04-12T22:31:22.476Z,1.45
2023-04-12T22:33:55.220Z,4.22
2023-04-12T22:36:29.655Z,5.05
2023-04-12T22:38:59.148Z,3.05
2023-04-12T22:41:28.752Z,1.60
2023-04-12T22:44:01.625Z,2.67
2023-04-12T22:46:33.264Z,1.38
2023-04-12T22:49:03.438Z,0.80
2023-04-12T22:51:34.493Z,0.55
2023-04-12T22:54:06.311Z,0.90
2023-04-12T22:56:41.963Z,0.70
2023-04-12T22:59:12.418Z,0.70
2023-04-12T23:01:42.209Z,0.80
2023-04-12T23:04:12.279Z,0.20
2023-04-12T23:06:44.913Z,0.20
2023-04-12T23:09:15.972Z,0.40
2023-04-12T23:11:45.258Z,0.32
2023-04-12T23:14:17.977Z,0.20
2023-04-12T23:16:51.828Z,0.10
2023-04-12T23:19:21.119Z,0.20
2023-04-12T23:21:51.930Z,0.40
2023-04-12T23:24:21.178Z,0.30
2023-04-12T23:26:50.529Z,0.40
2023-04-12T23:29:19.915Z,0.20
2023-04-12T23:31:49.319Z,0.75
2023-04-12T23:34:19.107Z,0.17
2023-04-12T23:36:51.119Z,0.10
2023-04-12T23:39:28.762Z,0.20
2023-04-12T23:41:58.215Z,0.20
2023-04-12T23:44:28.217Z,0.30
2023-04-12T23:46:57.634Z,0.20
2023-04-12T23:49:27.319Z,0.13
2023-04-12T23:51:57.295Z,0.13
2023-04-12T23:54:28.093Z,0.20
2023-04-12T23:56:57.577Z,0.10
2023-04-12T23:59:27.792Z,0.20
